createdAt,value
2018-04-25T00:01:46.864Z,7.62
2018-04-25T00:04:21.997Z,7.50
2018-04-25T00:06:56.694Z,8.32
2018-04-25T00:09:31.361Z,7.20
2018-04-25T00:12:06.121Z,7.80
2018-04-25T00:14:40.709Z,7.80
2018-04-25T00:17:15.519Z,7.37
2018-04-25T00:19:53.537Z,6.82
2018-04-25T00:22:28.786Z,6.22
2018-04-25T00:25:05.386Z,7.25
2018-04-25T00:27:41.567Z,7.18
2018-04-25T00:30:17.523Z,7.43
2018-04-25T00:32:53.145Z,7.10
2018-04-25T00:35:28.375Z,7.00
2018-04-25T00:38:04.350Z,7.65
2018-04-25T00:40:40.131Z,7.30
2018-04-25T00:43:15.472Z,7.32
2018-04-25T00:45:51.963Z,6.37
2018-04-25T00:48:26.402Z,6.53
2018-04-25T00:51:01.537Z,6.47
2018-04-25T00:53:37.717Z,7.25
2018-04-25T00:56:13.494Z,5.97
2018-04-25T00:58:48.706Z,6.60
2018-04-25T01:01:24.366Z,6.37
2018-04-25T01:04:00.262Z,6.55
2018-04-25T01:06:34.738Z,6.50
2018-04-25T01:09:10.029Z,5.82
2018-04-25T01:11:44.867Z,5.50
2018-04-25T01:14:19.331Z,5.87
2018-04-25T01:16:55.377Z,6.25
2018-04-25T01:19:30.149Z,6.47
2018-04-25T01:22:04.746Z,5.80
2018-04-25T01:24:39.913Z,5.62
2018-04-25T01:27:14.657Z,6.12
2018-04-25T01:29:50.692Z,6.05
2018-04-25T01:32:27.331Z,6.05
2018-04-25T01:35:02.240Z,5.90
2018-04-25T01:37:45.099Z,6.75
2018-04-25T01:40:20.460Z,6.32
2018-04-25T01:42:54.994Z,6.72
2018-04-25T01:45:29.977Z,6.80
2018-04-25T01:48:15.701Z,6.37
2018-04-25T01:50:58.316Z,7.43
2018-04-25T01:53:46.046Z,6.72
2018-04-25T01:56:32.396Z,6.78
2018-04-25T01:59:20.481Z,5.97
2018-04-25T02:01:55.256Z,6.57
2018-04-25T02:04:30.831Z,6.53
2018-04-25T02:07:07.305Z,6.12
2018-04-25T02:09:43.085Z,6.70
2018-04-25T02:12:18.688Z,6.62
2018-04-25T02:14:53.896Z,7.10
2018-04-25T02:17:28.980Z,6.80
2018-04-25T02:20:05.470Z,6.30
2018-04-25T02:22:40.758Z,6.82
2018-04-25T02:25:17.144Z,6.93
2018-04-25T02:27:52.575Z,6.25
2018-04-25T02:30:27.757Z,6.28
2018-04-25T02:33:04.620Z,6.28
2018-04-25T02:35:41.077Z,6.00
2018-04-25T02:38:16.510Z,6.65
2018-04-25T02:40:51.840Z,6.43
2018-04-25T02:43:29.161Z,6.53
2018-04-25T02:46:04.053Z,6.18
2018-04-25T02:48:40.797Z,6.40
2018-04-25T02:51:16.484Z,6.47
2018-04-25T02:53:52.445Z,6.30
2018-04-25T02:56:29.212Z,6.40
2018-04-25T02:59:04.397Z,6.45
2018-04-25T03:01:42.177Z,6.35
2018-04-25T03:04:18.673Z,6.93
2018-04-25T03:06:54.681Z,6.45
2018-04-25T03:09:29.932Z,6.53
2018-04-25T03:12:06.493Z,6.28
2018-04-25T03:14:42.536Z,5.75
2018-04-25T03:17:18.945Z,5.20
2018-04-25T03:19:55.189Z,4.30
2018-04-25T03:22:31.326Z,4.70
2018-04-25T03:25:06.772Z,4.62
2018-04-25T03:27:42.927Z,4.82
2018-04-25T03:30:19.097Z,8.00
2018-04-25T03:32:55.085Z,7.40
2018-04-25T03:35:31.621Z,7.15
2018-04-25T03:38:07.076Z,6.10
2018-04-25T03:40:43.744Z,5.62
2018-04-25T03:43:21.335Z,5.30
2018-04-25T03:45:58.272Z,5.10
2018-04-25T03:48:33.474Z,4.47
2018-04-25T03:51:08.553Z,4.20
2018-04-25T03:53:45.270Z,4.53
2018-04-25T03:56:20.456Z,5.05
2018-04-25T03:58:55.425Z,4.53
2018-04-25T04:01:32.081Z,4.78
2018-04-25T04:04:07.220Z,4.22
2018-04-25T04:06:43.688Z,4.50
2018-04-25T04:09:19.624Z,4.32
2018-04-25T04:11:56.155Z,4.45
2018-04-25T04:14:32.702Z,4.95
2018-04-25T04:17:09.052Z,4.30
2018-04-25T04:19:44.052Z,4.62
2018-04-25T04:22:20.664Z,4.50
2018-04-25T04:24:59.034Z,5.00
2018-04-25T04:27:34.649Z,4.15
2018-04-25T04:30:10.416Z,4.15
2018-04-25T04:32:46.147Z,4.30
2018-04-25T04:35:21.672Z,5.12
2018-04-25T04:37:56.873Z,4.57
2018-04-25T04:40:33.082Z,4.53
2018-04-25T04:43:08.445Z,4.78
2018-04-25T04:45:44.854Z,4.40
2018-04-25T04:48:20.972Z,4.37
2018-04-25T04:50:57.617Z,4.68
2018-04-25T04:53:34.173Z,4.28
2018-04-25T04:56:10.356Z,4.50
2018-04-25T04:58:45.400Z,4.27
2018-04-25T05:01:21.206Z,4.73
2018-04-25T05:03:57.384Z,4.40
2018-04-25T05:06:34.992Z,3.93
2018-04-25T05:09:10.978Z,4.53
2018-04-25T05:11:48.164Z,4.23
2018-04-25T05:14:24.344Z,4.10
2018-04-25T05:17:00.276Z,3.90
2018-04-25T05:19:36.428Z,4.33
2018-04-25T05:22:13.250Z,4.10
2018-04-25T05:24:48.566Z,4.50
2018-04-25T05:27:24.376Z,4.50
2018-04-25T05:30:01.437Z,4.40
2018-04-25T05:32:39.177Z,4.07
2018-04-25T05:35:14.334Z,4.43
2018-04-25T05:37:49.540Z,4.27
2018-04-25T05:40:26.184Z,3.83
2018-04-25T05:43:01.964Z,3.47
2018-04-25T05:45:37.077Z,4.10
2018-04-25T05:48:12.541Z,3.80
2018-04-25T05:50:48.754Z,4.30
2018-04-25T05:53:23.546Z,3.80
2018-04-25T05:55:59.160Z,3.97
2018-04-25T05:58:35.132Z,3.83
2018-04-25T06:01:10.258Z,4.13
2018-04-25T06:03:47.805Z,3.90
2018-04-25T06:06:23.908Z,3.83
2018-04-25T06:09:00.051Z,3.67
2018-04-25T06:11:37.147Z,3.60
2018-04-25T06:14:14.217Z,3.80
2018-04-25T06:16:51.166Z,3.40
2018-04-25T06:19:25.945Z,4.07
2018-04-25T06:22:00.658Z,3.77
2018-04-25T06:24:35.745Z,4.30
2018-04-25T06:27:11.472Z,3.57
2018-04-25T06:29:49.141Z,4.20
2018-04-25T06:32:25.454Z,3.60
2018-04-25T06:35:01.177Z,3.93
2018-04-25T06:37:37.555Z,3.67
2018-04-25T06:40:13.693Z,3.77
2018-04-25T06:42:49.590Z,3.83
2018-04-25T06:45:26.561Z,4.10
2018-04-25T06:48:02.128Z,3.73
2018-04-25T06:50:37.941Z,4.73
2018-04-25T06:53:13.808Z,4.37
2018-04-25T06:55:50.905Z,4.50
2018-04-25T06:58:27.648Z,3.80
2018-04-25T07:01:27.166Z,4.20
2018-04-25T07:04:09.157Z,4.50
2018-04-25T07:06:52.073Z,4.43
2018-04-25T07:09:37.781Z,3.90
2018-04-25T07:12:13.628Z,4.73
2018-04-25T07:14:48.379Z,4.50
2018-04-25T07:17:24.185Z,4.17
2018-04-25T07:20:00.780Z,4.57
2018-04-25T07:22:36.311Z,4.70
2018-04-25T07:25:12.758Z,4.67
2018-04-25T07:27:49.061Z,4.90
2018-04-25T07:30:25.277Z,4.97
2018-04-25T07:33:00.348Z,4.43
2018-04-25T07:35:35.231Z,4.97
2018-04-25T07:38:11.765Z,5.00
2018-04-25T07:40:47.810Z,5.33
2018-04-25T07:43:24.156Z,5.10
2018-04-25T07:45:59.515Z,5.40
2018-04-25T07:48:34.508Z,4.83
2018-04-25T07:51:11.657Z,6.60
2018-04-25T07:53:49.108Z,6.03
2018-04-25T07:56:29.204Z,5.67
2018-04-25T08:01:55.844Z,4.97
2018-04-25T08:04:31.606Z,5.27
2018-04-25T08:07:07.324Z,4.93
2018-04-25T08:09:50.574Z,5.03
2018-04-25T08:12:48.680Z,4.00
2018-04-25T08:15:39.336Z,4.37
2018-04-25T08:18:26.433Z,4.50
2018-04-25T08:24:14.525Z,4.43
2018-04-25T08:26:51.095Z,3.97
2018-04-25T08:29:29.972Z,5.20
2018-04-25T08:32:05.993Z,3.93
2018-04-25T08:34:43.502Z,4.50
2018-04-25T08:37:19.458Z,3.70
2018-04-25T08:39:55.348Z,4.00
2018-04-25T08:42:32.492Z,4.20
2018-04-25T08:45:09.309Z,3.63
2018-04-25T08:47:46.113Z,3.70
2018-04-25T08:50:23.501Z,4.17
2018-04-25T08:52:59.864Z,3.77
2018-04-25T08:55:36.333Z,5.00
2018-04-25T08:58:11.679Z,3.70
2018-04-25T09:00:47.596Z,4.00
2018-04-25T09:03:23.869Z,3.50
2018-04-25T09:05:59.956Z,3.63
2018-04-25T09:08:36.101Z,4.00
2018-04-25T09:11:12.345Z,3.80
2018-04-25T09:13:48.720Z,3.57
2018-04-25T09:16:25.050Z,4.17
2018-04-25T09:19:01.617Z,3.80
2018-04-25T09:21:36.410Z,4.23
2018-04-25T09:24:11.309Z,4.03
2018-04-25T09:26:47.864Z,3.67
2018-04-25T09:29:24.036Z,3.70
2018-04-25T09:31:59.768Z,3.50
2018-04-25T09:34:37.787Z,3.80
2018-04-25T09:37:13.886Z,3.97
2018-04-25T09:39:49.914Z,3.93
2018-04-25T09:42:25.723Z,4.23
2018-04-25T09:45:01.908Z,3.83
2018-04-25T09:47:38.377Z,4.17
2018-04-25T09:50:14.707Z,4.47
2018-04-25T09:52:50.826Z,4.47
2018-04-25T09:55:28.263Z,4.17
2018-04-25T09:58:04.062Z,5.03
2018-04-25T10:00:46.052Z,4.17
2018-04-25T10:03:23.147Z,4.33
2018-04-25T10:06:00.652Z,4.40
2018-04-25T10:08:35.866Z,3.73
2018-04-25T10:11:12.787Z,4.40
2018-04-25T10:13:47.962Z,3.90
2018-04-25T10:16:25.636Z,4.20
2018-04-25T10:19:01.221Z,4.10
2018-04-25T10:21:37.608Z,4.53
2018-04-25T10:24:13.698Z,5.40
2018-04-25T10:26:49.688Z,3.93
2018-04-25T10:29:26.868Z,3.97
2018-04-25T10:32:03.107Z,4.17
2018-04-25T10:34:39.363Z,3.70
2018-04-25T10:37:15.255Z,3.83
2018-04-25T10:39:51.614Z,4.17
2018-04-25T10:42:27.628Z,4.13
2018-04-25T10:45:02.612Z,3.63
2018-04-25T10:47:39.736Z,3.70
2018-04-25T10:50:16.872Z,4.00
2018-04-25T10:52:52.645Z,3.83
2018-04-25T10:55:29.770Z,3.73
2018-04-25T10:58:07.016Z,4.13
2018-04-25T11:00:44.024Z,3.43
2018-04-25T11:03:21.401Z,3.70
2018-04-25T11:05:56.846Z,3.60
2018-04-25T11:08:33.084Z,3.77
2018-04-25T11:11:07.575Z,3.30
2018-04-25T11:13:44.160Z,3.97
2018-04-25T11:16:21.936Z,4.57
2018-04-25T11:18:59.009Z,3.50
2018-04-25T11:21:34.010Z,3.97
2018-04-25T11:24:10.965Z,4.03
2018-04-25T11:26:49.206Z,3.87
2018-04-25T11:29:25.563Z,3.73
2018-04-25T11:32:01.564Z,4.40
2018-04-25T11:34:37.667Z,4.33
2018-04-25T11:37:13.793Z,4.00
2018-04-25T11:39:50.088Z,3.70
2018-04-25T11:42:26.449Z,3.40
2018-04-25T11:45:03.112Z,4.20
2018-04-25T11:47:39.504Z,4.43
2018-04-25T11:50:15.617Z,4.27
2018-04-25T11:52:51.916Z,4.27
2018-04-25T11:55:28.273Z,4.07
2018-04-25T11:58:04.032Z,4.23
2018-04-25T12:00:41.322Z,3.60
2018-04-25T12:03:18.009Z,4.23
2018-04-25T12:05:54.767Z,3.57
2018-04-25T12:08:31.015Z,3.90
2018-04-25T12:11:07.057Z,3.60
2018-04-25T12:13:44.921Z,3.90
2018-04-25T12:16:22.396Z,3.70
2018-04-25T12:18:58.351Z,3.83
2018-04-25T12:21:35.875Z,3.40
2018-04-25T12:24:11.980Z,3.47
2018-04-25T12:26:47.701Z,3.60
2018-04-25T12:29:23.788Z,3.50
2018-04-25T12:31:59.576Z,3.73
2018-04-25T12:34:35.299Z,4.03
2018-04-25T12:37:12.025Z,3.60
2018-04-25T12:39:48.117Z,4.00
2018-04-25T12:42:24.161Z,3.23
2018-04-25T12:45:01.169Z,3.43
2018-04-25T12:47:37.846Z,3.53
2018-04-25T12:50:14.288Z,3.50
2018-04-25T12:52:51.101Z,3.50
2018-04-25T12:55:26.217Z,3.90
2018-04-25T12:58:01.681Z,3.83
2018-04-25T13:00:38.033Z,4.03
2018-04-25T13:03:14.017Z,4.50
2018-04-25T13:05:50.185Z,4.33
2018-04-25T13:08:26.449Z,4.97
2018-04-25T13:11:02.286Z,5.00
2018-04-25T13:13:38.652Z,6.47
2018-04-25T13:16:14.902Z,6.37
2018-04-25T13:18:51.792Z,6.30
2018-04-25T13:21:28.052Z,6.50
2018-04-25T13:24:03.171Z,5.70
2018-04-25T13:26:39.092Z,5.83
2018-04-25T13:29:15.598Z,5.50
2018-04-25T13:31:51.581Z,4.97
2018-04-25T13:34:27.476Z,4.83
2018-04-25T13:37:04.898Z,4.77
2018-04-25T13:39:41.502Z,5.57
2018-04-25T13:42:18.979Z,5.43
2018-04-25T13:44:55.749Z,4.47
2018-04-25T13:47:32.708Z,4.43
2018-04-25T13:50:09.630Z,5.20
2018-04-25T13:52:44.332Z,4.97
2018-04-25T13:55:20.968Z,5.10
2018-04-25T13:57:55.934Z,4.77
2018-04-25T14:00:32.320Z,5.00
2018-04-25T14:03:09.289Z,5.00
2018-04-25T14:05:45.874Z,5.20
2018-04-25T14:08:22.610Z,4.87
2018-04-25T14:10:58.756Z,5.10
2018-04-25T14:13:36.159Z,4.23
2018-04-25T14:16:12.450Z,4.60
2018-04-25T14:18:48.718Z,3.90
2018-04-25T14:21:24.693Z,3.83
2018-04-25T14:24:00.796Z,4.30
2018-04-25T14:26:37.272Z,3.87
2018-04-25T14:29:14.961Z,4.13
2018-04-25T14:31:51.887Z,4.53
2018-04-25T14:34:27.773Z,4.13
2018-04-25T14:37:03.861Z,4.50
2018-04-25T14:39:40.218Z,3.97
2018-04-25T14:42:16.380Z,5.00
2018-04-25T14:44:53.664Z,4.00
2018-04-25T14:47:29.356Z,4.50
2018-04-25T14:50:05.600Z,4.20
2018-04-25T14:52:41.430Z,4.07
2018-04-25T14:55:16.662Z,5.23
2018-04-25T14:57:52.406Z,5.23
2018-04-25T15:00:28.340Z,5.10
2018-04-25T15:03:04.476Z,3.40
2018-04-25T15:05:40.831Z,3.03
2018-04-25T15:08:17.224Z,2.97
2018-04-25T15:10:53.394Z,3.30
2018-04-25T15:13:29.332Z,3.10
2018-04-25T15:16:05.594Z,3.30
2018-04-25T15:18:41.163Z,3.17
2018-04-25T15:21:17.562Z,3.07
2018-04-25T15:23:53.352Z,3.07
2018-04-25T15:26:29.293Z,2.93
2018-04-25T15:29:05.450Z,2.97
2018-04-25T15:31:42.304Z,2.80
2018-04-25T15:34:17.240Z,3.07
2018-04-25T15:36:52.695Z,2.60
2018-04-25T15:39:28.321Z,2.80
2018-04-25T15:42:04.713Z,2.57
2018-04-25T15:44:41.480Z,2.40
2018-04-25T15:47:18.559Z,2.70
2018-04-25T15:49:54.580Z,2.53
2018-04-25T15:52:30.868Z,2.50
2018-04-25T15:55:08.069Z,2.33
2018-04-25T15:57:44.474Z,2.60
2018-04-25T16:00:21.647Z,2.53
2018-04-25T16:02:57.853Z,2.50
2018-04-25T16:05:34.787Z,2.10
2018-04-25T16:08:10.929Z,2.70
2018-04-25T16:10:46.250Z,2.10
2018-04-25T16:13:22.489Z,2.60
2018-04-25T16:15:58.177Z,2.10
2018-04-25T16:18:34.534Z,2.20
2018-04-25T16:21:11.623Z,2.20
2018-04-25T16:23:48.092Z,1.90
2018-04-25T16:26:23.279Z,2.43
2018-04-25T16:28:58.408Z,2.23
2018-04-25T16:31:34.114Z,2.30
2018-04-25T16:34:09.308Z,2.83
2018-04-25T16:36:45.600Z,2.63
2018-04-25T16:39:22.485Z,2.80
2018-04-25T16:42:00.656Z,3.03
2018-04-25T16:44:37.226Z,3.40
2018-04-25T16:47:13.816Z,3.78
2018-04-25T16:49:50.180Z,3.53
2018-04-25T16:52:27.699Z,5.20
2018-04-25T16:55:03.819Z,5.43
2018-04-25T16:57:40.213Z,6.95
2018-04-25T17:00:16.618Z,7.95
2018-04-25T17:02:54.152Z,8.43
2018-04-25T17:05:31.113Z,8.70
2018-04-25T17:08:07.021Z,9.43
2018-04-25T17:10:44.305Z,8.65
2018-04-25T17:13:20.371Z,9.23
2018-04-25T17:15:57.140Z,9.38
2018-04-25T17:18:33.318Z,10.05
2018-04-25T17:21:10.186Z,10.20
2018-04-25T17:23:47.218Z,9.55
2018-04-25T17:26:22.797Z,10.00
2018-04-25T17:28:58.195Z,9.65
2018-04-25T17:31:34.073Z,10.32
2018-04-25T17:34:09.422Z,10.48
2018-04-25T17:36:46.989Z,10.63
2018-04-25T17:39:22.485Z,9.68
2018-04-25T17:41:58.701Z,9.40
2018-04-25T17:44:35.176Z,10.32
2018-04-25T17:47:10.981Z,9.98
2018-04-25T17:49:47.305Z,9.95
2018-04-25T17:52:23.885Z,11.32
2018-04-25T17:54:59.357Z,11.10
2018-04-25T17:57:35.837Z,10.15
2018-04-25T18:00:13.359Z,9.77
2018-04-25T18:02:51.380Z,11.20
2018-04-25T18:05:29.759Z,11.70
2018-04-25T18:08:05.761Z,10.30
2018-04-25T18:10:42.330Z,10.15
2018-04-25T18:13:17.613Z,11.43
2018-04-25T18:15:52.770Z,12.15
2018-04-25T18:18:30.820Z,12.20
2018-04-25T18:21:07.093Z,12.32
2018-04-25T18:23:42.288Z,11.75
2018-04-25T18:26:17.992Z,11.82
2018-04-25T18:28:53.238Z,11.15
2018-04-25T18:31:29.281Z,12.48
2018-04-25T18:34:06.777Z,11.45
2018-04-25T18:36:43.101Z,12.90
2018-04-25T18:39:19.235Z,10.63
2018-04-25T18:41:54.436Z,13.18
2018-04-25T18:44:31.838Z,12.88
2018-04-25T18:47:08.746Z,12.02
2018-04-25T18:49:45.035Z,11.63
2018-04-25T18:52:20.284Z,12.40
2018-04-25T18:54:55.972Z,11.50
2018-04-25T18:57:33.002Z,12.43
2018-04-25T19:00:08.813Z,12.98
2018-04-25T19:02:44.850Z,12.10
2018-04-25T19:05:20.345Z,12.65
2018-04-25T19:07:55.641Z,12.80
2018-04-25T19:10:32.112Z,13.13
2018-04-25T19:13:07.638Z,12.63
2018-04-25T19:15:43.621Z,14.10
2018-04-25T19:18:19.195Z,13.98
2018-04-25T19:20:54.438Z,13.48
2018-04-25T19:23:30.560Z,13.32
2018-04-25T19:26:06.276Z,13.52
2018-04-25T19:28:44.461Z,12.68
2018-04-25T19:31:20.044Z,13.77
2018-04-25T19:33:56.534Z,13.20
2018-04-25T19:36:37.283Z,12.80
2018-04-25T19:39:14.313Z,12.52
2018-04-25T19:41:52.378Z,12.68
2018-04-25T19:44:27.754Z,13.23
2018-04-25T19:47:04.063Z,14.90
2018-04-25T19:49:41.874Z,14.00
2018-04-25T19:52:17.899Z,13.27
2018-04-25T19:54:53.967Z,14.23
2018-04-25T19:57:30.091Z,17.10
2018-04-25T20:00:05.838Z,15.02
2018-04-25T20:02:41.245Z,14.60
2018-04-25T20:05:16.847Z,12.10
2018-04-25T20:07:51.944Z,13.23
2018-04-25T20:10:32.613Z,12.95
2018-04-25T20:13:09.089Z,13.60
2018-04-25T20:15:45.082Z,12.45
2018-04-25T20:18:22.044Z,12.37
2018-04-25T20:20:58.944Z,12.23
2018-04-25T20:23:34.877Z,12.32
2018-04-25T20:26:11.328Z,11.65
2018-04-25T20:28:48.115Z,12.30
2018-04-25T20:31:29.229Z,12.57
2018-04-25T20:34:06.301Z,12.65
2018-04-25T20:36:42.982Z,10.90
2018-04-25T20:39:20.753Z,12.43
2018-04-25T20:41:56.037Z,11.63
2018-04-25T20:44:31.644Z,11.90
2018-04-25T20:47:10.993Z,11.80
2018-04-25T20:49:47.724Z,11.98
2018-04-25T20:52:24.080Z,11.10
2018-04-25T20:55:00.132Z,12.43
2018-04-25T20:57:38.616Z,12.70
2018-04-25T21:00:16.685Z,12.13
2018-04-25T21:02:52.060Z,13.52
2018-04-25T21:05:32.897Z,12.37
2018-04-25T21:08:09.474Z,11.98
2018-04-25T21:10:45.526Z,12.43
2018-04-25T21:13:22.497Z,12.52
2018-04-25T21:15:59.821Z,12.88
2018-04-25T21:18:36.497Z,11.45
2018-04-25T21:21:13.363Z,11.10
2018-04-25T21:23:50.384Z,9.27
2018-04-25T21:26:25.364Z,10.63
2018-04-25T21:29:01.416Z,9.93
2018-04-25T21:31:37.355Z,9.90
2018-04-25T21:34:12.525Z,9.57
2018-04-25T21:36:48.290Z,10.48
2018-04-25T21:39:26.628Z,10.85
2018-04-25T21:42:03.423Z,11.15
2018-04-25T21:44:40.113Z,11.23
2018-04-25T21:47:16.745Z,11.30
2018-04-25T21:49:55.213Z,11.25
2018-04-25T21:52:31.943Z,10.77
2018-04-25T21:55:08.597Z,11.40
2018-04-25T21:57:44.877Z,11.52
2018-04-25T22:00:20.424Z,10.85
2018-04-25T22:02:56.823Z,12.23
2018-04-25T22:05:33.617Z,11.85
2018-04-25T22:08:09.881Z,13.00
2018-04-25T22:10:46.838Z,13.05
2018-04-25T22:13:23.287Z,13.20
2018-04-25T22:15:59.647Z,12.73
2018-04-25T22:18:34.781Z,13.40
2018-04-25T22:21:10.732Z,12.68
2018-04-25T22:23:46.080Z,12.55
2018-04-25T22:26:21.584Z,13.85
2018-04-25T22:28:56.952Z,13.98
2018-04-25T22:31:32.420Z,14.25
2018-04-25T22:34:07.845Z,14.57
2018-04-25T22:36:44.278Z,14.87
2018-04-25T22:39:21.019Z,15.55
2018-04-25T22:41:56.423Z,14.63
2018-04-25T22:44:31.876Z,16.70
2018-04-25T22:47:08.512Z,15.27
2018-04-25T22:49:45.014Z,15.73
2018-04-25T22:52:21.865Z,15.95
2018-04-25T22:54:58.338Z,16.08
2018-04-25T22:57:34.616Z,16.05
2018-04-25T23:00:09.192Z,16.70
2018-04-25T23:02:45.296Z,17.05
2018-04-25T23:05:20.388Z,15.38
2018-04-25T23:07:56.078Z,15.38
2018-04-25T23:10:32.035Z,15.68
2018-04-25T23:13:07.298Z,12.90
2018-04-25T23:15:42.694Z,14.00
2018-04-25T23:18:18.275Z,11.80
2018-04-25T23:20:53.585Z,13.48
2018-04-25T23:23:29.924Z,12.73
2018-04-25T23:26:07.022Z,14.10
2018-04-25T23:28:42.060Z,14.02
2018-04-25T23:31:17.532Z,12.88
2018-04-25T23:33:53.760Z,13.35
2018-04-25T23:36:29.687Z,12.27
2018-04-25T23:39:04.310Z,12.32
2018-04-25T23:41:41.323Z,12.77
2018-04-25T23:44:16.495Z,13.18
2018-04-25T23:46:53.496Z,11.68
2018-04-25T23:49:30.951Z,13.23
2018-04-25T23:52:06.585Z,12.57
2018-04-25T23:54:42.064Z,13.82
2018-04-25T23:57:17.226Z,12.68
2018-04-25T23:59:54.464Z,13.02
